Аэропорт: Уйташ. Махачкала

ICAO: URML

METAR:
2021-07-28 13:30:00
URML 281330Z 27006MPS 9999 SCT066CB 22/15 Q1016 R32/01//70 NOSIG RMK QFE762/1016
METAR:
2021-07-28 11:00:00
TAF URML 281100Z 2812/2821 31005G11MPS 9999 SCT033CB PROB40 TEMPO 2812/2818 -TSRA SCT017 BKN030CB